createdAt,value
2022-10-28T00:01:04.804Z,6.65
2022-10-28T00:03:39.393Z,6.74
2022-10-28T00:06:09.685Z,6.86
2022-10-28T00:08:37.577Z,6.85
2022-10-28T00:11:08.291Z,6.87
2022-10-28T00:13:38.477Z,6.86
2022-10-28T00:16:09.108Z,6.91
2022-10-28T00:18:37.308Z,6.76
2022-10-28T00:21:07.949Z,6.62
2022-10-28T00:23:36.222Z,6.58
2022-10-28T00:26:12.298Z,6.50
2022-10-28T00:28:47.043Z,6.40
2022-10-28T00:31:17.158Z,6.35
2022-10-28T00:33:45.523Z,6.27
2022-10-28T00:36:16.550Z,6.19
2022-10-28T00:38:45.964Z,6.10
2022-10-28T00:41:16.232Z,5.97
2022-10-28T00:43:48.569Z,5.96
2022-10-28T00:46:26.021Z,5.87
2022-10-28T00:48:58.324Z,5.96
2022-10-28T00:51:28.326Z,5.84
2022-10-28T00:53:57.266Z,5.95
2022-10-28T00:56:28.978Z,5.90
2022-10-28T00:59:02.814Z,5.93
2022-10-28T01:01:30.949Z,5.76
2022-10-28T01:04:00.375Z,5.68
2022-10-28T01:06:30.003Z,5.58
2022-10-28T01:09:00.073Z,5.58
2022-10-28T01:11:45.233Z,5.58
2022-10-28T01:14:22.897Z,5.53
2022-10-28T01:17:13.460Z,5.79
2022-10-28T01:20:07.725Z,5.72
2022-10-28T01:22:43.410Z,5.53
2022-10-28T01:25:40.641Z,5.39
2022-10-28T01:28:18.415Z,5.40
2022-10-28T01:31:18.316Z,5.35
2022-10-28T01:33:53.400Z,5.44
2022-10-28T01:36:29.666Z,5.53
2022-10-28T01:39:06.230Z,5.53
2022-10-28T01:41:39.778Z,5.66
2022-10-28T01:44:14.652Z,5.53
2022-10-28T01:46:50.657Z,5.55
2022-10-28T01:49:23.257Z,5.47
2022-10-28T01:51:53.809Z,5.62
2022-10-28T01:54:28.112Z,5.75
2022-10-28T01:56:58.866Z,5.71
2022-10-28T01:59:29.973Z,5.82
2022-10-28T02:01:59.147Z,5.75
2022-10-28T02:04:27.244Z,5.76
2022-10-28T02:06:56.785Z,5.57
2022-10-28T02:09:57.612Z,5.53
2022-10-28T02:12:29.438Z,5.25
2022-10-28T02:15:11.894Z,5.34
2022-10-28T02:17:50.105Z,5.26
2022-10-28T02:20:27.393Z,5.27
2022-10-28T02:23:01.510Z,4.87
2022-10-28T02:25:34.873Z,4.82
2022-10-28T02:28:08.733Z,4.99
2022-10-28T02:30:46.571Z,4.99
2022-10-28T02:33:19.716Z,4.90
2022-10-28T02:35:52.237Z,4.90
2022-10-28T02:38:26.009Z,5.18
2022-10-28T02:41:00.054Z,5.29
2022-10-28T02:43:31.036Z,5.37
2022-10-28T02:46:01.745Z,5.71
2022-10-28T02:48:34.621Z,5.72
2022-10-28T02:51:09.359Z,5.46
2022-10-28T02:53:47.092Z,5.44
2022-10-28T02:56:18.357Z,5.57
2022-10-28T02:58:46.778Z,5.54
2022-10-28T03:01:15.115Z,5.41
2022-10-28T03:03:44.796Z,5.38
2022-10-28T03:06:13.175Z,5.55
2022-10-28T03:08:40.911Z,5.55
2022-10-28T03:11:08.809Z,5.39
2022-10-28T03:13:36.697Z,5.18
2022-10-28T03:16:04.997Z,5.15
2022-10-28T03:18:32.873Z,5.10
2022-10-28T03:21:02.304Z,5.24
2022-10-28T03:23:30.005Z,5.21
2022-10-28T03:25:57.894Z,5.23
2022-10-28T03:28:25.958Z,5.18
2022-10-28T03:30:54.081Z,5.21
2022-10-28T03:33:21.769Z,5.25
2022-10-28T03:35:49.782Z,5.33
2022-10-28T03:38:19.081Z,5.41
2022-10-28T03:40:48.662Z,5.51
2022-10-28T03:43:16.660Z,5.40
2022-10-28T03:45:44.769Z,5.34
2022-10-28T03:48:12.512Z,5.26
2022-10-28T03:50:40.554Z,5.27
2022-10-28T03:53:08.351Z,5.29
2022-10-28T03:55:37.572Z,5.33
2022-10-28T03:58:05.617Z,5.19
2022-10-28T04:00:33.596Z,5.27
2022-10-28T04:03:01.273Z,5.22
2022-10-28T04:05:29.338Z,5.31
2022-10-28T04:07:57.350Z,5.48
2022-10-28T04:10:25.213Z,5.51
2022-10-28T04:12:54.675Z,5.55
2022-10-28T04:15:22.780Z,5.59
2022-10-28T04:17:50.513Z,5.68
2022-10-28T04:20:18.974Z,5.63
2022-10-28T04:22:46.814Z,5.62
2022-10-28T04:27:48.336Z,5.56
2022-10-28T04:30:17.943Z,5.69
2022-10-28T04:32:46.357Z,6.06
2022-10-28T04:35:15.210Z,6.36
2022-10-28T04:37:43.057Z,6.40
2022-10-28T04:40:11.738Z,6.41
2022-10-28T04:42:39.761Z,6.33
2022-10-28T04:45:08.877Z,5.84
2022-10-28T04:47:38.039Z,5.54
2022-10-28T04:50:07.028Z,5.51
2022-10-28T04:52:34.762Z,5.55
2022-10-28T04:55:02.940Z,5.59
2022-10-28T04:57:32.330Z,5.53
2022-10-28T05:00:00.228Z,5.68
2022-10-28T05:02:28.126Z,5.59
2022-10-28T05:05:00.215Z,5.63
2022-10-28T05:07:27.916Z,5.73
2022-10-28T05:09:55.958Z,5.68
2022-10-28T05:12:23.938Z,5.82
2022-10-28T05:14:53.147Z,5.74
2022-10-28T05:17:21.061Z,5.70
2022-10-28T05:19:49.281Z,5.75
2022-10-28T05:22:18.638Z,5.77
2022-10-28T05:24:46.520Z,5.90
2022-10-28T05:27:14.379Z,5.90
2022-10-28T05:29:42.444Z,5.82
2022-10-28T05:32:10.163Z,5.71
2022-10-28T05:34:38.321Z,5.79
2022-10-28T05:37:06.015Z,5.79
2022-10-28T05:39:35.258Z,5.79
2022-10-28T05:42:03.183Z,5.83
2022-10-28T05:44:31.325Z,5.78
2022-10-28T05:46:59.043Z,5.83
2022-10-28T05:49:27.034Z,5.89
2022-10-28T05:51:55.025Z,5.93
2022-10-28T05:54:22.909Z,6.10
2022-10-28T05:56:52.272Z,6.04
2022-10-28T05:59:20.530Z,6.02
2022-10-28T06:01:48.562Z,6.02
2022-10-28T06:04:16.701Z,6.16
2022-10-28T06:06:44.521Z,6.25
2022-10-28T06:09:12.397Z,6.05
2022-10-28T06:11:38.693Z,5.95
2022-10-28T06:14:08.209Z,6.06
2022-10-28T06:16:37.162Z,6.28
2022-10-28T06:19:05.116Z,6.07
2022-10-28T06:21:33.494Z,6.10
2022-10-28T06:24:01.478Z,6.18
2022-10-28T06:26:29.322Z,6.25
2022-10-28T06:28:57.318Z,6.40
2022-10-28T06:31:26.389Z,6.36
2022-10-28T06:33:54.389Z,6.48
2022-10-28T06:36:22.371Z,6.64
2022-10-28T06:38:52.510Z,6.66
2022-10-28T06:41:20.325Z,6.79
2022-10-28T06:43:48.243Z,6.91
2022-10-28T06:46:15.971Z,7.18
2022-10-28T06:48:46.935Z,7.41
2022-10-28T06:51:16.876Z,7.45
2022-10-28T06:53:44.908Z,7.69
2022-10-28T06:56:12.690Z,7.67
2022-10-28T06:58:40.762Z,7.99
2022-10-28T07:01:09.948Z,8.09
2022-10-28T07:03:48.864Z,8.26
2022-10-28T07:06:18.189Z,8.25
2022-10-28T07:08:46.015Z,8.28
2022-10-28T07:11:14.019Z,8.39
2022-10-28T07:13:44.257Z,8.58
2022-10-28T07:16:14.635Z,8.83
2022-10-28T07:18:42.355Z,8.96
2022-10-28T07:21:12.258Z,9.13
2022-10-28T07:23:40.088Z,9.21
2022-10-28T07:26:07.993Z,9.31
2022-10-28T07:28:35.819Z,9.64
2022-10-28T07:31:04.508Z,9.67
2022-10-28T07:33:32.569Z,9.92
2022-10-28T07:36:04.249Z,9.97
2022-10-28T07:38:35.260Z,9.64
2022-10-28T07:41:05.995Z,9.30
2022-10-28T07:43:36.795Z,9.20
2022-10-28T07:46:05.559Z,9.20
2022-10-28T07:48:33.354Z,9.04
2022-10-28T07:51:01.738Z,8.85
2022-10-28T07:53:29.927Z,8.53
2022-10-28T07:56:00.897Z,8.15
2022-10-28T07:58:29.423Z,7.94
2022-10-28T08:00:57.911Z,7.67
2022-10-28T08:03:31.321Z,7.67
2022-10-28T08:06:08.763Z,7.67
2022-10-28T08:08:36.617Z,7.54
2022-10-28T08:11:12.437Z,7.45
2022-10-28T08:13:40.553Z,7.60
2022-10-28T08:16:09.500Z,7.70
2022-10-28T08:18:37.730Z,7.70
2022-10-28T08:21:07.549Z,7.71
2022-10-28T08:23:36.218Z,7.77
2022-10-28T08:26:04.275Z,7.86
2022-10-28T08:28:33.553Z,7.94
2022-10-28T08:31:09.936Z,8.08
2022-10-28T08:33:39.588Z,8.31
2022-10-28T08:36:08.698Z,8.38
2022-10-28T08:38:37.522Z,8.53
2022-10-28T08:41:20.098Z,8.71
2022-10-28T08:44:02.411Z,8.96
2022-10-28T08:46:49.676Z,9.14
2022-10-28T08:49:20.831Z,9.19
2022-10-28T08:51:54.175Z,9.28
2022-10-28T08:54:25.949Z,9.41
2022-10-28T08:56:56.145Z,9.58
2022-10-28T08:59:30.345Z,9.78
2022-10-28T09:02:02.041Z,10.23
2022-10-28T09:04:38.759Z,10.50
2022-10-28T09:07:09.704Z,10.81
2022-10-28T09:09:37.462Z,10.66
2022-10-28T09:12:18.236Z,10.81
2022-10-28T09:15:03.677Z,10.91
2022-10-28T09:17:42.213Z,10.95
2022-10-28T09:20:19.278Z,11.33
2022-10-28T09:22:57.003Z,11.49
2022-10-28T09:25:31.979Z,11.60
2022-10-28T09:28:21.545Z,12.00
2022-10-28T09:31:00.832Z,12.02
2022-10-28T09:33:55.195Z,11.97
2022-10-28T09:36:28.452Z,12.29
2022-10-28T09:38:59.902Z,12.57
2022-10-28T09:41:32.637Z,12.54
2022-10-28T09:44:07.868Z,12.71
2022-10-28T09:46:40.088Z,13.13
2022-10-28T09:49:12.684Z,13.28
2022-10-28T09:51:47.152Z,13.50
2022-10-28T09:54:15.503Z,14.17
2022-10-28T09:56:43.428Z,14.01
2022-10-28T09:59:15.119Z,14.07
2022-10-28T10:01:46.627Z,14.53
2022-10-28T10:04:20.871Z,14.74
2022-10-28T10:06:52.359Z,14.29
2022-10-28T10:09:24.844Z,14.80
2022-10-28T10:11:56.245Z,15.05
2022-10-28T10:14:29.815Z,15.41
2022-10-28T10:17:03.710Z,15.52
2022-10-28T10:19:58.834Z,15.47
2022-10-28T10:22:31.412Z,15.58
2022-10-28T10:24:59.587Z,15.57
2022-10-28T10:27:29.607Z,15.79
2022-10-28T10:29:58.656Z,15.76
2022-10-28T10:32:31.091Z,16.06
2022-10-28T10:35:03.754Z,15.96
2022-10-28T10:37:35.711Z,15.86
2022-10-28T10:40:18.506Z,15.90
2022-10-28T10:42:57.551Z,16.37
2022-10-28T10:45:34.583Z,16.44
2022-10-28T10:48:14.808Z,17.13
2022-10-28T10:50:44.475Z,17.15
2022-10-28T10:53:21.046Z,17.72
2022-10-28T10:55:55.807Z,18.26
2022-10-28T10:58:25.984Z,18.74
2022-10-28T11:00:57.020Z,18.68
2022-10-28T11:03:31.403Z,19.24
2022-10-28T11:08:50.032Z,18.26
2022-10-28T11:11:21.316Z,17.91
2022-10-28T11:14:03.169Z,17.79
2022-10-28T11:16:31.684Z,17.82
2022-10-28T11:19:16.852Z,18.24
2022-10-28T11:22:01.904Z,17.38
2022-10-28T11:24:43.529Z,17.24
2022-10-28T11:27:20.746Z,17.14
2022-10-28T11:29:49.248Z,17.30
2022-10-28T11:32:27.059Z,17.24
2022-10-28T11:35:20.079Z,17.13
2022-10-28T11:37:58.857Z,17.38
2022-10-28T11:40:35.449Z,17.28
2022-10-28T11:43:19.290Z,17.45
2022-10-28T11:45:54.812Z,17.55
2022-10-28T11:48:40.346Z,17.22
2022-10-28T11:51:19.585Z,17.06
2022-10-28T11:54:21.012Z,16.94
2022-10-28T11:56:54.800Z,17.29
2022-10-28T11:59:52.876Z,16.93
2022-10-28T12:02:38.844Z,17.04
2022-10-28T12:05:19.082Z,16.97
2022-10-28T12:08:04.227Z,16.48
2022-10-28T12:10:43.152Z,16.31
2022-10-28T12:13:21.431Z,16.45
2022-10-28T12:15:56.346Z,16.35
2022-10-28T12:18:30.839Z,16.45
2022-10-28T12:21:03.236Z,16.11
2022-10-28T12:23:35.955Z,16.02
2022-10-28T12:26:08.135Z,16.21
2022-10-28T12:28:40.363Z,16.28
2022-10-28T12:31:19.214Z,16.21
2022-10-28T12:33:50.287Z,16.23
2022-10-28T12:36:26.109Z,16.04
2022-10-28T12:39:01.436Z,16.06
2022-10-28T12:41:47.723Z,16.04
2022-10-28T12:44:20.115Z,16.19
2022-10-28T12:46:58.807Z,16.25
2022-10-28T12:49:38.126Z,16.13
2022-10-28T12:52:17.015Z,15.94
2022-10-28T12:54:56.855Z,16.03
2022-10-28T12:57:26.556Z,16.03
2022-10-28T13:00:00.554Z,16.02
2022-10-28T13:02:33.416Z,16.22
2022-10-28T13:05:01.315Z,16.19
2022-10-28T13:07:56.187Z,16.24
2022-10-28T13:10:35.401Z,16.14
2022-10-28T13:13:39.128Z,16.19
2022-10-28T13:16:22.405Z,16.01
2022-10-28T13:19:06.249Z,16.05
2022-10-28T13:22:00.847Z,16.05
2022-10-28T13:24:37.032Z,16.14
2022-10-28T13:27:06.912Z,16.08
2022-10-28T13:29:35.996Z,16.17
2022-10-28T13:32:03.976Z,16.14
2022-10-28T13:34:34.981Z,16.27
2022-10-28T13:37:06.198Z,16.32
2022-10-28T13:39:44.410Z,16.19
2022-10-28T13:42:33.515Z,16.23
2022-10-28T13:45:03.490Z,16.24
2022-10-28T13:47:32.980Z,16.26
2022-10-28T13:50:32.796Z,16.43
2022-10-28T13:53:46.259Z,16.38
2022-10-28T13:56:23.229Z,16.42
2022-10-28T13:58:55.436Z,16.49
2022-10-28T14:01:40.199Z,16.44
2022-10-28T14:04:28.814Z,16.57
2022-10-28T14:07:21.492Z,16.55
2022-10-28T14:09:53.169Z,16.59
2022-10-28T14:12:28.076Z,16.66
2022-10-28T14:15:19.108Z,16.61
2022-10-28T14:17:50.284Z,16.74
2022-10-28T14:20:30.587Z,16.79
2022-10-28T14:22:58.881Z,16.82
2022-10-28T14:26:01.586Z,16.80
2022-10-28T14:28:54.970Z,16.87
2022-10-28T14:31:44.851Z,16.85
2022-10-28T14:34:40.627Z,16.81
2022-10-28T14:37:38.706Z,16.75
2022-10-28T14:40:23.388Z,16.74
2022-10-28T14:43:11.863Z,16.64
2022-10-28T14:45:53.588Z,16.62
2022-10-28T14:48:34.787Z,16.64
2022-10-28T14:51:03.837Z,16.54
2022-10-28T14:53:35.468Z,16.42
2022-10-28T14:56:06.737Z,16.27
2022-10-28T14:58:38.646Z,16.17
2022-10-28T15:01:35.053Z,16.16
2022-10-28T15:04:12.083Z,16.07
2022-10-28T15:06:43.494Z,16.10
2022-10-28T15:09:19.032Z,16.09
2022-10-28T15:11:49.630Z,15.97
2022-10-28T15:14:27.158Z,15.78
2022-10-28T15:16:55.472Z,15.57
2022-10-28T15:19:27.156Z,15.52
2022-10-28T15:22:06.949Z,15.40
2022-10-28T15:24:35.444Z,15.09
2022-10-28T15:27:03.612Z,14.98
2022-10-28T15:29:32.483Z,14.78
2022-10-28T15:32:28.495Z,14.68
2022-10-28T15:34:58.431Z,14.60
2022-10-28T15:37:29.276Z,14.59
2022-10-28T15:40:19.903Z,14.43
2022-10-28T15:42:52.846Z,14.24
2022-10-28T15:45:25.547Z,14.06
2022-10-28T15:47:55.004Z,13.88
2022-10-28T15:50:30.396Z,13.68
2022-10-28T15:53:34.055Z,13.55
2022-10-28T15:56:20.583Z,13.48
2022-10-28T15:59:01.503Z,13.36
2022-10-28T16:01:38.066Z,13.32
2022-10-28T16:04:06.929Z,13.18
2022-10-28T16:06:37.901Z,13.33
2022-10-28T16:09:15.092Z,13.36
2022-10-28T16:11:47.654Z,13.22
2022-10-28T16:14:33.581Z,12.88
2022-10-28T16:17:07.325Z,12.82
2022-10-28T16:19:39.102Z,12.81
2022-10-28T16:22:11.910Z,12.85
2022-10-28T16:24:39.638Z,12.78
2022-10-28T16:27:21.537Z,12.86
2022-10-28T16:29:49.874Z,12.76
2022-10-28T16:32:26.049Z,12.74
2022-10-28T16:34:53.880Z,12.73
2022-10-28T16:37:25.839Z,12.68
2022-10-28T16:39:53.976Z,12.62
2022-10-28T16:42:23.375Z,12.61
2022-10-28T16:44:51.617Z,12.64
2022-10-28T16:47:21.246Z,12.58
2022-10-28T16:49:54.125Z,12.51
2022-10-28T16:52:29.578Z,12.41
2022-10-28T16:54:57.972Z,12.35
2022-10-28T16:57:26.526Z,12.27
2022-10-28T16:59:54.576Z,12.25
2022-10-28T17:02:27.044Z,12.19
2022-10-28T17:04:55.124Z,12.14
2022-10-28T17:07:23.729Z,12.10
2022-10-28T17:09:52.918Z,12.23
2022-10-28T17:12:22.972Z,12.04
2022-10-28T17:14:50.916Z,12.08
2022-10-28T17:17:19.079Z,12.01
2022-10-28T17:19:46.921Z,12.01
2022-10-28T17:22:15.323Z,11.95
2022-10-28T17:24:43.129Z,11.95
2022-10-28T17:27:13.759Z,11.93
2022-10-28T17:29:41.835Z,11.87
2022-10-28T17:32:10.098Z,12.00
2022-10-28T17:34:38.092Z,11.92
2022-10-28T17:37:07.689Z,11.99
2022-10-28T17:39:35.649Z,11.87
2022-10-28T17:42:04.040Z,11.89
2022-10-28T17:44:33.439Z,11.94
2022-10-28T17:47:01.496Z,11.75
2022-10-28T17:49:29.842Z,11.73
2022-10-28T17:51:57.912Z,11.69
2022-10-28T17:54:25.794Z,11.63
2022-10-28T17:56:53.755Z,11.56
2022-10-28T17:59:21.894Z,11.44
2022-10-28T18:01:51.272Z,11.46
2022-10-28T18:04:20.139Z,11.44
2022-10-28T18:06:48.230Z,11.47
2022-10-28T18:09:15.925Z,11.37
2022-10-28T18:11:43.996Z,11.19
2022-10-28T18:14:11.941Z,11.16
2022-10-28T18:16:39.879Z,11.12
2022-10-28T18:19:09.296Z,11.14
2022-10-28T18:21:37.507Z,11.13
2022-10-28T18:24:05.606Z,11.13
2022-10-28T18:26:35.051Z,11.15
2022-10-28T18:29:04.079Z,11.14
2022-10-28T18:31:33.305Z,11.04
2022-10-28T18:34:01.810Z,10.96
2022-10-28T18:36:34.587Z,10.93
2022-10-28T18:39:05.511Z,10.85
2022-10-28T18:41:36.032Z,10.80
2022-10-28T18:44:05.697Z,10.75
2022-10-28T18:46:35.519Z,10.68
2022-10-28T18:49:04.431Z,10.56
2022-10-28T18:51:34.038Z,10.47
2022-10-28T18:54:02.128Z,10.41
2022-10-28T18:56:30.863Z,10.32
2022-10-28T18:58:59.994Z,10.27
2022-10-28T19:01:29.910Z,10.21
2022-10-28T19:03:59.240Z,10.18
2022-10-28T19:06:29.794Z,10.05
2022-10-28T19:09:01.135Z,9.97
2022-10-28T19:11:31.874Z,9.86
2022-10-28T19:14:01.559Z,9.76
2022-10-28T19:16:36.336Z,9.61
2022-10-28T19:19:06.009Z,9.70
2022-10-28T19:21:34.404Z,9.69
2022-10-28T19:24:03.532Z,9.72
2022-10-28T19:26:33.618Z,9.68
2022-10-28T19:29:01.400Z,9.65
2022-10-28T19:31:30.726Z,9.68
2022-10-28T19:33:58.868Z,9.68
2022-10-28T19:36:28.545Z,9.46
2022-10-28T19:38:57.724Z,9.43
2022-10-28T19:41:29.675Z,9.32
2022-10-28T19:43:59.563Z,9.22
2022-10-28T19:46:29.270Z,9.08
2022-10-28T19:48:59.368Z,9.02
2022-10-28T19:51:29.192Z,8.95
2022-10-28T19:53:59.356Z,8.91
2022-10-28T19:56:30.921Z,8.79
2022-10-28T19:59:00.643Z,8.74
2022-10-28T20:01:30.841Z,8.75
2022-10-28T20:03:58.899Z,8.65
2022-10-28T20:06:32.391Z,8.63
2022-10-28T20:09:00.339Z,8.58
2022-10-28T20:11:32.636Z,8.47
2022-10-28T20:14:02.019Z,8.32
2022-10-28T20:16:32.271Z,8.22
2022-10-28T20:19:00.513Z,8.12
2022-10-28T20:21:30.554Z,8.09
2022-10-28T20:23:58.819Z,8.09
2022-10-28T20:26:29.929Z,8.06
2022-10-28T20:28:58.633Z,7.96
2022-10-28T20:31:29.039Z,7.80
2022-10-28T20:33:58.655Z,7.79
2022-10-28T20:36:28.915Z,7.70
2022-10-28T20:38:58.324Z,7.71
2022-10-28T20:41:27.621Z,7.69
2022-10-28T20:43:57.261Z,7.62
2022-10-28T20:46:26.756Z,7.53
2022-10-28T20:48:56.364Z,7.42
2022-10-28T20:51:26.337Z,7.15
2022-10-28T20:53:54.361Z,6.98
2022-10-28T20:56:24.445Z,6.87
2022-10-28T20:58:53.495Z,6.62
2022-10-28T21:01:25.232Z,6.53
2022-10-28T21:03:55.164Z,6.20
2022-10-28T21:06:23.680Z,6.26
2022-10-28T21:08:51.726Z,6.13
2022-10-28T21:11:20.064Z,5.99
2022-10-28T21:13:52.012Z,5.93
2022-10-28T21:16:21.100Z,5.86
2022-10-28T21:18:51.349Z,5.95
2022-10-28T21:21:20.067Z,5.90
2022-10-28T21:23:49.427Z,5.87
2022-10-28T21:26:17.807Z,5.91
2022-10-28T21:28:49.252Z,5.93
2022-10-28T21:31:18.107Z,6.00
2022-10-28T21:33:46.578Z,5.98
2022-10-28T21:36:17.375Z,5.99
2022-10-28T21:38:45.371Z,6.04
2022-10-28T21:41:15.910Z,6.02
2022-10-28T21:43:45.298Z,5.93
2022-10-28T21:46:13.300Z,5.92
2022-10-28T21:48:41.321Z,5.86
2022-10-28T21:51:14.393Z,5.79
2022-10-28T21:53:46.068Z,5.74
2022-10-28T21:56:18.217Z,5.72
2022-10-28T21:58:48.337Z,5.77
2022-10-28T22:01:18.403Z,5.71
2022-10-28T22:03:46.347Z,5.73
2022-10-28T22:06:14.972Z,5.74
2022-10-28T22:08:44.172Z,5.83
2022-10-28T22:11:14.019Z,5.77
2022-10-28T22:13:42.042Z,5.78
2022-10-28T22:16:12.939Z,5.70
2022-10-28T22:18:40.968Z,5.63
2022-10-28T22:21:12.155Z,5.60
2022-10-28T22:23:40.564Z,5.55
2022-10-28T22:26:12.187Z,5.50
2022-10-28T22:28:40.759Z,5.36
2022-10-28T22:31:10.925Z,5.31
2022-10-28T22:33:39.420Z,5.17
2022-10-28T22:36:09.664Z,5.15
2022-10-28T22:38:37.529Z,5.10
2022-10-28T22:41:07.107Z,5.08
2022-10-28T22:43:36.711Z,5.01
2022-10-28T22:46:05.226Z,4.92
2022-10-28T22:48:33.538Z,4.87
2022-10-28T22:51:02.796Z,4.77
2022-10-28T22:53:30.883Z,4.61
2022-10-28T22:55:58.740Z,4.43
2022-10-28T22:58:28.168Z,4.40
2022-10-28T23:01:07.106Z,4.33
2022-10-28T23:03:36.479Z,4.28
2022-10-28T23:06:04.718Z,4.27
2022-10-28T23:08:32.958Z,4.17
2022-10-28T23:11:01.440Z,4.16
2022-10-28T23:13:29.345Z,4.06
2022-10-28T23:15:57.490Z,3.91
2022-10-28T23:18:28.560Z,3.79
2022-10-28T23:20:56.270Z,3.58
2022-10-28T23:23:24.458Z,3.49
2022-10-28T23:25:53.344Z,3.36
2022-10-28T23:28:21.412Z,3.32
2022-10-28T23:30:49.535Z,3.30
2022-10-28T23:33:17.348Z,3.29
2022-10-28T23:35:53.885Z,3.35
2022-10-28T23:38:22.291Z,3.31
2022-10-28T23:41:01.270Z,3.14
2022-10-28T23:43:30.218Z,3.15
2022-10-28T23:45:59.413Z,3.08
2022-10-28T23:48:28.818Z,3.08
2022-10-28T23:50:58.527Z,3.00
2022-10-28T23:56:00.144Z,2.77
2022-10-28T23:58:28.300Z,2.65
